Alexandra, Australia
Current Conditions -  °F | °C
As of 3:30 AM on Monday 22 Dec 2014 (Local Time) from YMEN Reporting Station
Broken Clouds Broken Clouds  
Wind Chill: 63°   Ceiling: 1200
Heat Index: 63°   Visibility: 6mi
Dew Point: 59°   Wind: 8mph
Humidity: 88%   Direction: 260°W
Pressure: 29.88"   Gusts: NA
Location:  37.2°S, 145.71°E
Report Text: YMEN 211630Z AUTO 26007KT 9999 // SCT009 BKN012 17/15 Q1012
Loading
Personal Weather Stations






























Interactive Weather Map New forecast layout! Learn more

10-Day Weather Forecast

Advertisements
Track Severe Weather on mobile